Hauptseite
METAR-TAF:

METAR-TAF

Flughäfen :

Düsseldorf Airport

Düsseldorf, Deutschland

Breite: 51-18N, Länge: 006-46E, Höhe: 45 m

Beobachtung

Neuester Wetterbericht von vor 34 Minuten, um 18:50 UTC
Wind 4 kt aus Nordost
Temperatur 28°C
Luftfeuchtigkeit 37%
Luftdruck 1018 hPa
Sichtweite 10 km oder mehr
keine Wolken unter 1500 m und keine Kumulonimbus oder Gewitterwolken

METAR: EDDL 061850Z 04004KT CAVOK 28/12 Q1018 NOSIG

Zeit: 21:24 (19:24 UTC)

Prognose

Neuester Wetterbericht von vor 2 Stunden und 24 Minuten, um 17:00 UTC
Gültige Prognose vom 06 um 18 UTC bis 07 um 24 UTC
Wind 4 kt aus Ost/Nordost
Sichtweite 10 km oder mehr
keine Wolken unter 1500 m und keine Kumulonimbus oder Gewitterwolken
Zeitweise
vom 07 um 03 UTC bis 07 um 07 UTC
Wind 6 kt aus Süd/Südost

TAF: EDDL 061700Z 0618/0724 07004KT CAVOK TEMPO 0703/0707 15006KT

Wetterbeobachtungen und Prognosen von mehr als 4000 Flughäfen (METAR und TAF Bericht).

Die verfügbaren Stationen werden durch gelbe und rote Markierungen auf der Karte dargestellt.

Führen Sie die Maus auf sie, um den Namen der Station zu sehen.

Darauf klicken, um die Beobachtung von Wetterbeobachtungen und Prognosen zu sehen.

Um die Karte zu ändern : klicken Sie auf den grünen Tasten mit einem schwarzen Kreuz Zum Vergrößern, auf den grünen Button mit einem Gedankenstrich zu verkleinern, oder auf die grünen Pfeile für benachbarte Karten.


METAR-TAF: